createdAt,value
2023-04-20T00:02:03.163Z,39.99
2023-04-20T00:04:31.521Z,40.20
2023-04-20T00:06:59.567Z,40.19
2023-04-20T00:09:28.325Z,40.20
2023-04-20T00:11:56.407Z,40.20
2023-04-20T00:14:24.593Z,40.27
2023-04-20T00:16:52.725Z,40.29
2023-04-20T00:19:22.353Z,40.45
2023-04-20T00:21:50.449Z,40.45
2023-04-20T00:24:18.414Z,40.42
2023-04-20T00:26:46.488Z,40.48
2023-04-20T00:29:14.516Z,40.49
2023-04-20T00:31:42.564Z,40.57
2023-04-20T00:34:10.595Z,40.38
2023-04-20T00:36:39.988Z,40.32
2023-04-20T00:39:08.078Z,40.31
2023-04-20T00:41:36.102Z,40.62
2023-04-20T00:44:04.182Z,40.63
2023-04-20T00:46:32.210Z,40.46
2023-04-20T00:49:01.074Z,40.43
2023-04-20T00:51:29.683Z,40.55
2023-04-20T00:54:01.256Z,40.64
2023-04-20T00:56:29.290Z,40.72
2023-04-20T00:58:57.435Z,40.94
2023-04-20T01:01:26.850Z,40.89
2023-04-20T01:03:55.532Z,40.95
2023-04-20T01:06:24.000Z,41.01
2023-04-20T01:08:55.134Z,40.86
2023-04-20T01:11:24.635Z,40.92
2023-04-20T01:13:52.671Z,41.07
2023-04-20T01:16:20.845Z,41.20
2023-04-20T01:18:50.342Z,41.25
2023-04-20T01:21:21.873Z,41.30
2023-04-20T01:23:51.537Z,41.37
2023-04-20T01:26:20.894Z,41.43
2023-04-20T01:28:51.629Z,41.58
2023-04-20T01:31:20.045Z,41.68
2023-04-20T01:33:48.110Z,41.80
2023-04-20T01:36:16.164Z,41.86
2023-04-20T01:38:46.281Z,41.87
2023-04-20T01:41:15.758Z,41.89
2023-04-20T01:43:43.892Z,41.89
2023-04-20T01:46:13.585Z,41.94
2023-04-20T01:48:41.649Z,41.97
2023-04-20T01:51:09.974Z,41.81
2023-04-20T01:53:38.050Z,41.78
2023-04-20T01:56:06.475Z,41.99
2023-04-20T01:58:35.876Z,41.86
2023-04-20T02:01:04.073Z,41.80
2023-04-20T02:03:32.375Z,41.41
2023-04-20T02:06:00.839Z,41.50
2023-04-20T02:08:31.137Z,41.20
2023-04-20T02:10:59.197Z,41.13
2023-04-20T02:13:27.924Z,40.57
2023-04-20T02:15:57.342Z,40.24
2023-04-20T02:18:25.652Z,39.89
2023-04-20T02:20:54.620Z,39.59
2023-04-20T02:23:22.748Z,39.50
2023-04-20T02:25:50.816Z,39.17
2023-04-20T02:28:19.000Z,38.64
2023-04-20T02:30:47.020Z,38.41
2023-04-20T02:33:16.690Z,37.95
2023-04-20T02:35:45.477Z,37.40
2023-04-20T02:38:13.603Z,36.93
2023-04-20T02:40:41.755Z,36.73
2023-04-20T02:43:09.832Z,35.73
2023-04-20T02:45:39.410Z,35.66
2023-04-20T02:48:09.136Z,35.05
2023-04-20T02:50:39.300Z,34.87
2023-04-20T02:53:15.698Z,34.44
2023-04-20T02:55:46.317Z,34.18
2023-04-20T02:58:28.310Z,33.86
2023-04-20T03:01:13.688Z,33.91
2023-04-20T03:03:42.232Z,33.97
2023-04-20T03:06:14.395Z,33.99
2023-04-20T03:08:46.895Z,34.37
2023-04-20T03:11:33.181Z,34.58
2023-04-20T03:14:02.043Z,34.75
2023-04-20T03:16:30.164Z,34.92
2023-04-20T03:18:59.425Z,34.90
2023-04-20T03:21:28.853Z,34.61
2023-04-20T03:23:57.062Z,34.86
2023-04-20T03:26:25.541Z,35.08
2023-04-20T03:29:12.328Z,34.50
2023-04-20T03:31:41.249Z,34.82
2023-04-20T03:34:11.276Z,34.70
2023-04-20T03:36:40.951Z,34.57
2023-04-20T03:39:09.801Z,34.75
2023-04-20T03:41:37.870Z,34.54
2023-04-20T03:44:07.182Z,34.31
2023-04-20T03:46:36.432Z,34.76
2023-04-20T03:49:04.533Z,34.99
2023-04-20T03:51:32.767Z,35.60
2023-04-20T03:54:02.201Z,37.07
2023-04-20T03:56:30.723Z,37.79
2023-04-20T03:58:59.324Z,38.58
2023-04-20T04:01:28.393Z,38.85
2023-04-20T04:03:56.737Z,38.41
2023-04-20T04:06:25.099Z,38.40
2023-04-20T04:08:53.314Z,38.41
2023-04-20T04:11:22.826Z,38.57
2023-04-20T04:13:51.195Z,39.30
2023-04-20T04:16:19.802Z,39.76
2023-04-20T04:18:50.140Z,39.70
2023-04-20T04:21:18.254Z,40.31
2023-04-20T04:23:53.109Z,40.16
2023-04-20T04:26:31.902Z,40.38
2023-04-20T04:29:00.671Z,40.01
2023-04-20T04:31:28.896Z,40.06
2023-04-20T04:34:03.834Z,40.39
2023-04-20T04:36:40.912Z,40.15
2023-04-20T04:39:13.414Z,40.23
2023-04-20T04:41:49.470Z,40.66
2023-04-20T04:44:28.893Z,40.86
2023-04-20T04:46:57.575Z,40.97
2023-04-20T04:49:27.444Z,40.88
2023-04-20T04:51:55.555Z,41.16
2023-04-20T04:54:23.674Z,41.10
2023-04-20T04:56:53.201Z,40.79
2023-04-20T04:59:21.484Z,40.70
2023-04-20T05:01:49.669Z,40.70
2023-04-20T05:04:17.928Z,40.66
2023-04-20T05:06:46.410Z,40.97
2023-04-20T05:09:14.587Z,40.75
2023-04-20T05:11:42.755Z,40.76
2023-04-20T05:14:12.265Z,41.09
2023-04-20T05:16:40.511Z,41.19
2023-04-20T05:19:08.652Z,41.07
2023-04-20T05:21:38.199Z,41.14
2023-04-20T05:24:07.292Z,40.59
2023-04-20T05:26:35.574Z,40.66
2023-04-20T05:29:03.685Z,40.50
2023-04-20T05:31:33.538Z,40.22
2023-04-20T05:34:01.939Z,40.12
2023-04-20T05:36:30.982Z,40.00
2023-04-20T05:38:59.120Z,39.90
2023-04-20T05:41:27.795Z,40.17
2023-04-20T05:43:56.954Z,40.30
2023-04-20T05:46:25.214Z,40.11
2023-04-20T05:48:54.878Z,39.85
2023-04-20T05:51:23.341Z,39.83
2023-04-20T05:53:51.447Z,39.94
2023-04-20T05:56:19.579Z,40.29
2023-04-20T05:58:48.016Z,40.64
2023-04-20T06:01:16.064Z,41.24
2023-04-20T06:03:44.530Z,42.07
2023-04-20T06:06:16.639Z,42.53
2023-04-20T06:08:44.933Z,43.18
2023-04-20T06:11:13.075Z,44.35
2023-04-20T06:13:41.109Z,44.87
2023-04-20T06:16:10.976Z,45.58
2023-04-20T06:18:39.264Z,45.91
2023-04-20T06:21:10.213Z,46.28
2023-04-20T06:23:40.901Z,46.64
2023-04-20T06:26:10.410Z,46.93
2023-04-20T06:28:39.127Z,47.15
2023-04-20T06:31:07.811Z,47.62
2023-04-20T06:33:36.465Z,47.83
2023-04-20T06:36:07.985Z,47.90
2023-04-20T06:38:36.169Z,48.20
2023-04-20T06:41:05.839Z,48.29
2023-04-20T06:43:34.143Z,48.83
2023-04-20T06:46:02.294Z,48.67
2023-04-20T06:48:32.870Z,48.92
2023-04-20T06:51:01.613Z,49.39
2023-04-20T06:53:29.748Z,49.60
2023-04-20T06:55:58.458Z,49.66
2023-04-20T06:58:28.015Z,49.87
2023-04-20T07:00:56.209Z,50.14
2023-04-20T07:03:24.804Z,50.42
2023-04-20T07:05:53.141Z,50.34
2023-04-20T07:08:21.707Z,50.58
2023-04-20T07:10:49.852Z,50.47
2023-04-20T07:13:18.049Z,50.67
2023-04-20T07:15:47.788Z,50.55
2023-04-20T07:18:16.012Z,50.94
2023-04-20T07:20:44.259Z,51.09
2023-04-20T07:23:12.417Z,51.26
2023-04-20T07:25:40.654Z,51.04
2023-04-20T07:28:09.012Z,51.18
2023-04-20T07:30:37.240Z,51.24
2023-04-20T07:33:07.488Z,51.08
2023-04-20T07:35:35.715Z,51.04
2023-04-20T07:38:03.839Z,50.63
2023-04-20T07:40:32.129Z,50.79
2023-04-20T07:43:01.490Z,50.90
2023-04-20T07:45:29.640Z,51.17
2023-04-20T07:48:01.544Z,51.10
2023-04-20T07:50:32.239Z,50.81
2023-04-20T07:53:00.538Z,50.33
2023-04-20T07:55:28.742Z,50.69
2023-04-20T07:57:57.091Z,50.32
2023-04-20T08:00:26.434Z,49.89
2023-04-20T08:02:57.510Z,50.17
2023-04-20T08:05:31.830Z,50.01
2023-04-20T08:08:01.465Z,50.32
2023-04-20T08:10:29.706Z,49.56
2023-04-20T08:12:58.984Z,49.81
2023-04-20T08:15:27.300Z,49.85
2023-04-20T08:17:55.571Z,49.54
2023-04-20T08:20:24.935Z,48.94
2023-04-20T08:22:53.380Z,49.00
2023-04-20T08:25:24.640Z,49.72
2023-04-20T08:27:53.834Z,49.75
2023-04-20T08:30:32.976Z,49.73
2023-04-20T08:33:01.623Z,49.13
2023-04-20T08:35:32.357Z,49.81
2023-04-20T08:38:02.655Z,49.47
2023-04-20T08:40:33.600Z,48.92
2023-04-20T08:43:02.180Z,48.97
2023-04-20T08:45:31.509Z,49.11
2023-04-20T08:48:00.398Z,48.78
2023-04-20T08:50:28.545Z,48.87
2023-04-20T08:52:56.732Z,47.82
2023-04-20T08:55:24.850Z,47.96
2023-04-20T08:57:54.299Z,48.26
2023-04-20T09:00:22.909Z,48.79
2023-04-20T09:02:52.595Z,48.78
2023-04-20T09:05:29.092Z,47.69
2023-04-20T09:07:59.018Z,48.14
2023-04-20T09:10:28.494Z,48.54
2023-04-20T09:12:58.052Z,48.37
2023-04-20T09:15:27.370Z,48.51
2023-04-20T09:17:55.765Z,48.03
2023-04-20T09:20:35.080Z,48.09
2023-04-20T09:23:13.028Z,47.82
2023-04-20T09:25:43.540Z,48.13
2023-04-20T09:28:14.339Z,48.33
2023-04-20T09:30:44.111Z,48.31
2023-04-20T09:33:14.362Z,48.66
2023-04-20T09:35:43.402Z,48.74
2023-04-20T09:38:12.191Z,49.23
2023-04-20T09:40:40.204Z,49.01
2023-04-20T09:43:15.181Z,49.13
2023-04-20T09:45:45.406Z,49.13
2023-04-20T09:48:17.069Z,49.01
2023-04-20T09:50:50.063Z,49.27
2023-04-20T09:53:20.034Z,48.92
2023-04-20T09:55:49.279Z,48.80
2023-04-20T09:58:19.972Z,48.79
2023-04-20T10:00:49.595Z,48.47
2023-04-20T10:03:19.002Z,48.52
2023-04-20T10:05:47.273Z,48.58
2023-04-20T10:08:15.468Z,48.76
2023-04-20T10:10:48.596Z,48.81
2023-04-20T10:13:19.494Z,48.91
2023-04-20T10:15:49.357Z,49.07
2023-04-20T10:18:19.140Z,49.18
2023-04-20T10:20:47.503Z,48.90
2023-04-20T10:23:16.364Z,48.97
2023-04-20T10:25:57.241Z,48.95
2023-04-20T10:28:25.337Z,49.26
2023-04-20T10:30:55.339Z,48.82
2023-04-20T10:33:23.929Z,48.88
2023-04-20T10:35:55.029Z,48.80
2023-04-20T10:38:33.267Z,48.90
2023-04-20T10:41:08.210Z,49.37
2023-04-20T10:43:39.044Z,49.48
2023-04-20T10:46:16.542Z,49.26
2023-04-20T10:48:55.312Z,49.28
2023-04-20T10:51:24.310Z,49.52
2023-04-20T10:54:04.559Z,48.76
2023-04-20T10:56:40.051Z,47.93
2023-04-20T10:59:08.915Z,48.58
2023-04-20T11:01:38.636Z,48.35
2023-04-20T11:04:07.334Z,48.78
2023-04-20T11:06:35.813Z,48.50
2023-04-20T11:09:04.499Z,48.26
2023-04-20T11:11:32.614Z,48.33
2023-04-20T11:14:08.564Z,48.31
2023-04-20T11:16:49.724Z,48.60
2023-04-20T11:19:24.322Z,48.44
2023-04-20T11:21:52.392Z,48.58
2023-04-20T11:24:21.008Z,48.76
2023-04-20T11:26:51.081Z,49.07
2023-04-20T11:29:29.858Z,48.95
2023-04-20T11:32:00.021Z,49.21
2023-04-20T11:34:28.305Z,48.85
2023-04-20T11:36:57.041Z,48.76
2023-04-20T11:39:26.341Z,48.53
2023-04-20T11:41:54.810Z,48.71
2023-04-20T11:44:22.843Z,49.18
2023-04-20T11:46:53.267Z,48.99
2023-04-20T11:49:22.858Z,49.19
2023-04-20T11:51:52.233Z,49.04
2023-04-20T11:54:21.886Z,49.11
2023-04-20T11:56:50.070Z,49.50
2023-04-20T11:59:20.169Z,49.83
2023-04-20T12:01:48.791Z,50.71
2023-04-20T12:04:17.197Z,49.79
2023-04-20T12:06:47.248Z,47.45
2023-04-20T12:09:15.894Z,44.77
2023-04-20T12:11:44.371Z,43.01
2023-04-20T12:14:12.470Z,38.01
2023-04-20T12:16:40.468Z,38.14
2023-04-20T12:19:09.052Z,39.37
2023-04-20T12:21:37.255Z,40.00
2023-04-20T12:24:07.896Z,39.59
2023-04-20T12:26:38.786Z,39.67
2023-04-20T12:29:07.580Z,39.53
2023-04-20T12:31:36.487Z,40.21
2023-04-20T12:34:04.949Z,40.94
2023-04-20T12:36:35.028Z,40.27
2023-04-20T12:39:04.217Z,38.99
2023-04-20T12:41:34.471Z,38.64
2023-04-20T12:44:05.123Z,36.58
2023-04-20T12:46:34.686Z,36.55
2023-04-20T12:49:03.190Z,36.42
2023-04-20T12:51:31.799Z,35.39
2023-04-20T12:54:00.184Z,36.21
2023-04-20T12:56:28.219Z,37.14
2023-04-20T12:58:57.731Z,37.99
2023-04-20T13:01:25.943Z,37.15
2023-04-20T13:03:54.256Z,35.57
2023-04-20T13:06:22.704Z,34.95
2023-04-20T13:08:51.171Z,32.44
2023-04-20T13:11:19.285Z,32.37
2023-04-20T13:13:47.290Z,33.57
2023-04-20T13:16:16.888Z,32.34
2023-04-20T13:18:45.071Z,31.41
2023-04-20T13:21:13.081Z,31.88
2023-04-20T13:23:41.258Z,32.93
2023-04-20T13:26:09.931Z,31.79
2023-04-20T13:28:38.744Z,32.20
2023-04-20T13:31:06.912Z,30.03
2023-04-20T13:33:36.345Z,30.48
2023-04-20T13:36:04.666Z,30.61
2023-04-20T13:38:32.829Z,30.47
2023-04-20T13:41:00.926Z,30.92
2023-04-20T13:43:28.937Z,32.02
2023-04-20T13:45:57.045Z,32.12
2023-04-20T13:48:25.145Z,31.28
2023-04-20T13:50:55.186Z,31.11
2023-04-20T13:53:23.438Z,31.50
2023-04-20T13:55:51.473Z,32.10
2023-04-20T13:58:19.508Z,32.67
2023-04-20T14:00:47.674Z,32.98
2023-04-20T14:03:18.723Z,33.54
2023-04-20T14:05:47.103Z,32.84
2023-04-20T14:08:16.567Z,33.51
2023-04-20T14:10:44.716Z,33.86
2023-04-20T14:13:12.753Z,34.30
2023-04-20T14:15:41.536Z,34.49
2023-04-20T14:18:09.713Z,35.66
2023-04-20T14:20:37.919Z,35.94
2023-04-20T14:23:09.309Z,35.44
2023-04-20T14:25:39.004Z,35.29
2023-04-20T14:28:07.025Z,35.15
2023-04-20T14:30:35.203Z,35.01
2023-04-20T14:33:04.275Z,33.35
2023-04-20T14:35:32.455Z,32.02
2023-04-20T14:38:00.461Z,32.38
2023-04-20T14:40:28.607Z,32.03
2023-04-20T14:42:58.147Z,32.73
2023-04-20T14:45:26.336Z,33.71
2023-04-20T14:47:55.221Z,33.74
2023-04-20T14:50:23.812Z,34.89
2023-04-20T14:52:51.789Z,35.54
2023-04-20T14:55:23.452Z,36.22
2023-04-20T14:57:51.995Z,36.81
2023-04-20T15:00:23.640Z,36.94
2023-04-20T15:02:52.021Z,37.48
2023-04-20T15:05:20.461Z,37.78
2023-04-20T15:07:50.732Z,38.17
2023-04-20T15:10:19.327Z,38.24
2023-04-20T15:12:48.928Z,38.90
2023-04-20T15:15:17.604Z,38.19
2023-04-20T15:17:47.630Z,37.79
2023-04-20T15:20:16.407Z,36.12
2023-04-20T15:22:44.611Z,36.03
2023-04-20T15:25:12.801Z,35.85
2023-04-20T15:27:40.814Z,36.74
2023-04-20T15:30:09.632Z,37.85
2023-04-20T15:32:37.725Z,38.07
2023-04-20T15:35:07.846Z,38.34
2023-04-20T15:37:35.882Z,37.69
2023-04-20T15:40:04.478Z,37.62
2023-04-20T15:42:33.078Z,37.82
2023-04-20T15:45:01.071Z,37.92
2023-04-20T15:47:29.227Z,37.99
2023-04-20T15:50:01.371Z,38.44
2023-04-20T15:52:31.826Z,38.86
2023-04-20T15:55:00.162Z,38.98
2023-04-20T15:57:28.226Z,39.59
2023-04-20T15:59:56.307Z,39.38
2023-04-20T16:02:24.689Z,38.87
2023-04-20T16:04:52.882Z,39.16
2023-04-20T16:07:21.065Z,39.96
2023-04-20T16:09:50.693Z,40.40
2023-04-20T16:12:18.818Z,40.94
2023-04-20T16:14:46.996Z,41.65
2023-04-20T16:17:15.679Z,42.32
2023-04-20T16:19:43.773Z,42.87
2023-04-20T16:22:12.340Z,42.92
2023-04-20T16:24:40.524Z,43.35
2023-04-20T16:27:09.973Z,43.79
2023-04-20T16:29:38.023Z,44.16
2023-04-20T16:32:07.208Z,44.25
2023-04-20T16:34:35.389Z,44.63
2023-04-20T16:37:03.435Z,44.74
2023-04-20T16:39:31.470Z,45.24
2023-04-20T16:41:59.605Z,45.58
2023-04-20T16:44:29.139Z,46.22
2023-04-20T16:46:57.288Z,46.50
2023-04-20T16:49:26.134Z,46.70
2023-04-20T16:51:54.298Z,46.84
2023-04-20T16:54:25.400Z,47.01
2023-04-20T16:56:53.471Z,47.65
2023-04-20T16:59:21.524Z,48.62
2023-04-20T17:01:51.408Z,48.86
2023-04-20T17:04:19.786Z,49.21
2023-04-20T17:06:48.184Z,49.23
2023-04-20T17:09:16.366Z,49.84
2023-04-20T17:11:44.387Z,50.00
2023-04-20T17:14:12.453Z,50.15
2023-04-20T17:16:40.563Z,50.25
2023-04-20T17:19:10.044Z,50.53
2023-04-20T17:21:40.256Z,50.36
2023-04-20T17:24:08.380Z,50.27
2023-04-20T17:26:36.599Z,50.24
2023-04-20T17:29:04.794Z,50.26
2023-04-20T17:31:33.487Z,50.19
2023-04-20T17:34:01.730Z,50.02
2023-04-20T17:36:32.015Z,49.89
2023-04-20T17:39:00.413Z,49.91
2023-04-20T17:41:28.523Z,49.92
2023-04-20T17:43:56.721Z,50.01
2023-04-20T17:46:24.964Z,50.14
2023-04-20T17:48:54.813Z,50.29
2023-04-20T17:51:23.032Z,50.40
2023-04-20T17:53:52.739Z,50.12
2023-04-20T17:56:21.605Z,50.23
2023-04-20T17:58:49.652Z,50.52
2023-04-20T18:01:17.793Z,50.53
2023-04-20T18:03:46.034Z,50.56
2023-04-20T18:06:14.109Z,50.63
2023-04-20T18:08:42.247Z,50.82
2023-04-20T18:11:11.701Z,50.65
2023-04-20T18:13:39.712Z,50.50
2023-04-20T18:16:08.445Z,50.50
2023-04-20T18:18:36.823Z,50.24
2023-04-20T18:21:05.361Z,50.20
2023-04-20T18:23:33.873Z,50.49
2023-04-20T18:26:01.979Z,50.53
2023-04-20T18:28:31.414Z,50.50
2023-04-20T18:31:00.988Z,50.65
2023-04-20T18:33:29.110Z,50.73
2023-04-20T18:35:57.247Z,50.84
2023-04-20T18:38:25.380Z,50.79
2023-04-20T18:40:53.419Z,50.92
2023-04-20T18:43:21.579Z,51.01
2023-04-20T18:45:51.115Z,50.86
2023-04-20T18:48:19.344Z,50.99
2023-04-20T18:50:47.987Z,51.00
2023-04-20T18:53:16.608Z,51.17
2023-04-20T18:55:44.774Z,51.25
2023-04-20T18:58:12.909Z,51.17
2023-04-20T19:00:41.098Z,51.21
2023-04-20T19:03:10.906Z,51.39
2023-04-20T19:05:39.155Z,51.71
2023-04-20T19:08:07.258Z,51.64
2023-04-20T19:10:35.320Z,51.66
2023-04-20T19:13:03.329Z,51.66
2023-04-20T19:15:31.511Z,51.56
2023-04-20T19:17:59.609Z,51.57
2023-04-20T19:20:29.030Z,51.54
2023-04-20T19:22:57.150Z,51.72
2023-04-20T19:25:25.223Z,51.52
2023-04-20T19:27:53.368Z,51.44
2023-04-20T19:30:21.396Z,51.41
2023-04-20T19:32:49.595Z,51.40
2023-04-20T19:35:17.737Z,51.24
2023-04-20T19:37:47.458Z,51.24
2023-04-20T19:40:16.314Z,51.19
2023-04-20T19:42:44.422Z,51.04
2023-04-20T19:45:12.686Z,50.95
2023-04-20T19:47:40.760Z,50.79
2023-04-20T19:50:09.272Z,50.72
2023-04-20T19:52:37.288Z,50.73
2023-04-20T19:55:07.969Z,50.70
2023-04-20T19:57:36.020Z,50.62
2023-04-20T20:00:05.576Z,50.39
2023-04-20T20:02:41.311Z,50.33
2023-04-20T20:05:09.928Z,50.34
2023-04-20T20:07:38.371Z,50.23
2023-04-20T20:10:08.547Z,50.30
2023-04-20T20:12:36.815Z,50.39
2023-04-20T20:15:05.726Z,50.37
2023-04-20T20:17:33.905Z,50.29
2023-04-20T20:20:02.220Z,50.23
2023-04-20T20:22:30.525Z,50.14
2023-04-20T20:24:58.961Z,50.07
2023-04-20T20:27:28.596Z,50.06
2023-04-20T20:29:56.828Z,49.99
2023-04-20T20:32:25.402Z,50.11
2023-04-20T20:34:53.762Z,50.18
2023-04-20T20:37:22.169Z,50.15
2023-04-20T20:39:50.386Z,50.04
2023-04-20T20:42:18.509Z,49.92
2023-04-20T20:44:47.955Z,49.85
2023-04-20T20:47:16.011Z,49.89
2023-04-20T20:49:44.169Z,49.90
2023-04-20T20:52:12.238Z,49.92
2023-04-20T20:54:40.732Z,49.95
2023-04-20T20:57:08.933Z,49.98
2023-04-20T20:59:37.174Z,49.90
2023-04-20T21:02:06.758Z,49.82
2023-04-20T21:04:35.005Z,49.85
2023-04-20T21:07:03.402Z,49.89
2023-04-20T21:09:31.583Z,49.90
2023-04-20T21:12:00.227Z,50.02
2023-04-20T21:14:28.277Z,50.13
2023-04-20T21:16:56.562Z,50.22
2023-04-20T21:19:26.261Z,50.55
2023-04-20T21:21:54.475Z,50.82
2023-04-20T21:24:22.644Z,51.65
2023-04-20T21:26:50.899Z,52.50
2023-04-20T21:29:19.393Z,52.83
2023-04-20T21:31:47.833Z,52.91
2023-04-20T21:34:15.894Z,52.98
2023-04-20T21:36:45.602Z,53.02
2023-04-20T21:39:13.673Z,53.14
2023-04-20T21:41:41.762Z,53.49
2023-04-20T21:44:09.839Z,53.49
2023-04-20T21:46:37.962Z,53.49
2023-04-20T21:49:06.117Z,53.73
2023-04-20T21:51:34.308Z,53.82
2023-04-20T21:54:03.780Z,53.79
2023-04-20T21:56:31.895Z,53.87
2023-04-20T21:58:59.980Z,54.21
2023-04-20T22:01:28.108Z,54.17
2023-04-20T22:03:56.403Z,54.42
2023-04-20T22:06:24.560Z,54.37
2023-04-20T22:08:52.631Z,54.23
2023-04-20T22:11:22.182Z,54.12
2023-04-20T22:13:50.262Z,54.24
2023-04-20T22:16:21.108Z,54.29
2023-04-20T22:18:49.551Z,54.10
2023-04-20T22:21:17.598Z,54.05
2023-04-20T22:23:45.598Z,54.04
2023-04-20T22:26:13.642Z,53.88
2023-04-20T22:28:43.039Z,53.63
2023-04-20T22:31:11.078Z,53.46
2023-04-20T22:33:39.121Z,53.39
2023-04-20T22:36:08.462Z,53.17
2023-04-20T22:38:37.966Z,52.89
2023-04-20T22:41:06.220Z,52.65
2023-04-20T22:43:34.253Z,52.49
2023-04-20T22:46:03.882Z,52.31
2023-04-20T22:48:31.924Z,52.17
2023-04-20T22:51:01.012Z,52.05
2023-04-20T22:53:29.879Z,52.10
2023-04-20T22:56:04.566Z,51.43
2023-04-20T22:58:32.607Z,51.66
2023-04-20T23:01:00.928Z,51.79
2023-04-20T23:03:31.237Z,51.66
2023-04-20T23:05:59.570Z,51.78
2023-04-20T23:08:28.366Z,51.41
2023-04-20T23:10:56.621Z,51.71
2023-04-20T23:13:26.328Z,51.66
2023-04-20T23:15:54.736Z,51.85
2023-04-20T23:18:22.846Z,51.93
2023-04-20T23:20:52.269Z,51.82
2023-04-20T23:23:20.282Z,51.67
2023-04-20T23:25:48.322Z,51.64
2023-04-20T23:28:16.440Z,51.70
2023-04-20T23:30:44.482Z,51.72
2023-04-20T23:33:12.661Z,51.56
2023-04-20T23:35:40.795Z,51.89
2023-04-20T23:38:10.206Z,51.80
2023-04-20T23:40:39.396Z,52.12
2023-04-20T23:43:07.382Z,52.01
2023-04-20T23:45:35.609Z,51.95
2023-04-20T23:48:03.760Z,52.06
2023-04-20T23:50:31.837Z,51.98
2023-04-20T23:52:59.984Z,52.02
2023-04-20T23:55:29.362Z,52.03
2023-04-20T23:57:58.388Z,52.34
